Time;durP1;ratioP1;P1;durP2;ratioP2;P2;SDS_P1;SDS_P2;PMS_P1;PMS_P2;Temp;Humidity;BMP_temperature;BMP_pressure;BME280_temperature;BME280_humidity;BME280_pressure;Samples;Min_cycle;Max_cycle;Signal;HPM_P1;HPM_P2
2021/04/20 00:01:39;;;;;;;24.93;21.20;;;9.50;99.90;;;;;;5035124;28;20462;-86
2021/04/20 00:04:09;;;;;;;25.10;22.50;;;9.40;99.90;;;;;;5034114;28;20893;-86
2021/04/20 00:06:36;;;;;;;24.67;21.57;;;9.40;99.90;;;;;;5034100;28;20514;-86
2021/04/20 00:09:07;;;;;;;24.13;21.63;;;9.30;99.90;;;;;;5035443;28;20474;-86
2021/04/20 00:11:36;;;;;;;24.93;22.20;;;9.30;99.90;;;;;;5033969;28;20458;-86
2021/04/20 00:14:06;;;;;;;25.47;22.67;;;9.20;99.90;;;;;;5034189;28;20470;-86
2021/04/20 00:16:36;;;;;;;25.47;23.00;;;9.20;99.90;;;;;;5033723;28;20451;-87
2021/04/20 00:19:06;;;;;;;22.50;20.30;;;9.10;99.90;;;;;;5033663;28;20534;-86
2021/04/20 00:21:35;;;;;;;23.17;20.67;;;9.10;99.90;;;;;;5033366;28;20538;-86
2021/04/20 00:24:03;;;;;;;23.77;21.37;;;9.00;99.90;;;;;;5033669;28;20821;-86
2021/04/20 00:26:31;;;;;;;24.17;21.67;;;9.00;99.90;;;;;;5033966;28;20513;-86
2021/04/20 00:28:58;;;;;;;26.33;22.40;;;9.00;99.90;;;;;;5033927;28;20479;-86
2021/04/20 00:31:31;;;;;;;24.80;21.73;;;8.90;99.90;;;;;;5034599;28;20833;-86
2021/04/20 00:33:59;;;;;;;25.30;22.53;;;8.90;99.90;;;;;;5033830;28;20475;-86
2021/04/20 00:36:34;;;;;;;24.07;21.50;;;8.80;99.90;;;;;;5034451;28;20448;-86
2021/04/20 00:39:02;;;;;;;24.63;21.87;;;8.80;99.90;;;;;;5037510;28;20471;-86
2021/04/20 00:41:33;;;;;;;22.37;20.07;;;8.80;99.90;;;;;;5033767;28;20463;-86
2021/04/20 00:44:00;;;;;;;24.03;21.57;;;8.70;99.90;;;;;;5034410;28;20454;-86
2021/04/20 00:46:28;;;;;;;24.83;21.00;;;8.70;99.90;;;;;;5035633;28;20866;-87
2021/04/20 00:48:56;;;;;;;24.07;21.57;;;8.70;99.90;;;;;;5033724;28;20576;-86
2021/04/20 00:51:24;;;;;;;23.17;20.87;;;8.60;99.90;;;;;;5033706;28;20458;-86
2021/04/20 00:53:52;;;;;;;23.50;21.10;;;8.60;99.90;;;;;;5033167;28;20559;-86
2021/04/20 00:56:21;;;;;;;24.47;21.23;;;8.50;99.90;;;;;;5033522;28;20450;-86
2021/04/20 00:58:48;;;;;;;26.20;22.50;;;8.50;99.90;;;;;;5034527;28;20440;-86
2021/04/20 01:01:19;;;;;;;24.53;21.70;;;8.40;99.90;;;;;;5033526;28;20939;-86
2021/04/20 01:03:47;;;;;;;24.57;20.70;;;8.40;99.90;;;;;;5033699;28;20450;-86
2021/04/20 01:06:15;;;;;;;24.90;21.23;;;8.40;99.90;;;;;;5033682;28;20482;-86
2021/04/20 01:08:43;;;;;;;26.20;22.50;;;8.30;99.90;;;;;;5033509;28;21002;-86
2021/04/20 01:11:11;;;;;;;25.40;22.70;;;8.30;99.90;;;;;;5033416;28;20545;-86
2021/04/20 01:13:40;;;;;;;23.77;21.07;;;8.30;99.90;;;;;;5033097;28;20485;-87
2021/04/20 01:16:12;;;;;;;21.57;19.37;;;8.20;99.90;;;;;;5033814;28;20948;-86
2021/04/20 01:18:48;;;;;;;23.27;20.77;;;8.20;99.90;;;;;;5033465;28;20478;-85
2021/04/20 01:21:24;;;;;;;23.07;20.60;;;8.20;99.90;;;;;;5033445;28;20445;-87
2021/04/20 01:24:05;;;;;;;25.20;20.37;;;8.20;99.90;;;;;;5033864;28;20562;-86
2021/04/20 01:26:42;;;;;;;22.07;19.77;;;8.10;99.90;;;;;;5034165;28;20821;-86
2021/04/20 01:29:10;;;;;;;23.37;20.73;;;8.10;99.90;;;;;;5034326;28;20549;-85
2021/04/20 01:31:39;;;;;;;22.63;20.23;;;8.10;99.90;;;;;;5033549;28;20460;-86
2021/04/20 01:34:08;;;;;;;22.03;19.57;;;8.00;99.90;;;;;;5033146;28;20465;-85
2021/04/20 01:36:38;;;;;;;22.20;19.90;;;8.00;99.90;;;;;;5033598;28;20476;-85
2021/04/20 01:39:16;;;;;;;21.30;19.20;;;8.00;99.90;;;;;;5033912;28;20540;-85
2021/04/20 01:41:48;;;;;;;18.10;16.20;;;7.90;99.90;;;;;;5037584;28;20504;-85
2021/04/20 01:44:19;;;;;;;17.30;15.57;;;7.90;99.90;;;;;;5036858;28;20968;-85
2021/04/20 01:46:46;;;;;;;16.57;14.67;;;7.80;99.90;;;;;;5037351;28;20454;-85
2021/04/20 01:49:14;;;;;;;14.53;12.90;;;7.80;99.90;;;;;;5038394;28;21044;-84
2021/04/20 01:51:42;;;;;;;13.97;12.50;;;7.70;99.90;;;;;;5037231;28;20441;-84
2021/04/20 01:54:10;;;;;;;15.37;13.40;;;7.70;99.90;;;;;;5036974;28;20466;-84
2021/04/20 01:56:38;;;;;;;15.90;14.07;;;7.70;99.90;;;;;;5037384;28;20547;-85
2021/04/20 01:59:06;;;;;;;15.77;14.13;;;7.60;99.90;;;;;;5037041;28;20480;-85
2021/04/20 02:01:34;;;;;;;14.00;12.70;;;7.60;99.90;;;;;;5038209;28;20434;-86
2021/04/20 02:04:02;;;;;;;14.20;12.33;;;7.60;99.90;;;;;;5037136;28;20449;-86
2021/04/20 02:06:30;;;;;;;17.17;12.33;;;7.50;99.90;;;;;;5037126;28;21044;-85
2021/04/20 02:08:58;;;;;;;13.93;12.53;;;7.50;99.90;;;;;;5037865;28;20484;-85
2021/04/20 02:11:26;;;;;;;16.40;14.70;;;7.50;99.90;;;;;;5037400;28;20457;-85
2021/04/20 02:13:54;;;;;;;15.63;14.03;;;7.50;99.90;;;;;;5036671;28;20550;-85
2021/04/20 02:16:23;;;;;;;17.60;14.67;;;7.40;99.90;;;;;;5036140;28;20595;-85
2021/04/20 02:18:57;;;;;;;15.37;13.87;;;7.40;99.90;;;;;;5037857;28;20441;-85
2021/04/20 02:21:25;;;;;;;16.50;14.80;;;7.40;99.90;;;;;;5036820;28;20437;-85
2021/04/20 02:23:54;;;;;;;14.30;13.00;;;7.30;99.90;;;;;;5037455;28;20458;-85
2021/04/20 02:26:27;;;;;;;17.37;15.57;;;7.30;99.90;;;;;;5036022;28;20450;-85
2021/04/20 02:28:57;;;;;;;16.60;15.00;;;7.20;99.90;;;;;;5035385;28;20558;-85
2021/04/20 02:31:27;;;;;;;16.40;14.60;;;7.20;99.90;;;;;;5035835;28;20460;-86
2021/04/20 02:33:55;;;;;;;18.23;14.60;;;7.10;99.90;;;;;;5036197;28;20512;-86
2021/04/20 02:36:25;;;;;;;18.80;16.23;;;7.10;99.90;;;;;;5035712;28;20492;-86
2021/04/20 02:38:52;;;;;;;18.73;16.70;;;7.10;99.90;;;;;;5035363;28;20531;-85
2021/04/20 02:41:20;;;;;;;18.00;16.07;;;7.10;99.90;;;;;;5035765;28;20525;-85
2021/04/20 02:43:49;;;;;;;19.33;17.33;;;7.00;99.90;;;;;;5035835;28;20871;-85
2021/04/20 02:46:16;;;;;;;18.33;16.52;;;7.00;99.90;;;;;;5036781;28;20445;-85
2021/04/20 02:48:45;;;;;;;17.50;15.80;;;7.00;99.90;;;;;;5035156;28;20212;-85
2021/04/20 02:51:13;;;;;;;18.70;15.50;;;7.00;99.90;;;;;;5035260;28;20827;-85
2021/04/20 02:53:43;;;;;;;15.07;13.47;;;6.90;99.90;;;;;;5035482;28;20523;-85
2021/04/20 02:56:14;;;;;;;15.55;13.55;;;6.80;99.90;;;;;;5040064;28;20449;-85
2021/04/20 02:58:43;;;;;;;12.87;11.57;;;6.90;99.90;;;;;;5039791;28;20281;-85
2021/04/20 03:01:18;;;;;;;15.33;13.80;;;6.90;99.90;;;;;;5035559;28;20461;-86
2021/04/20 03:03:48;;;;;;;13.07;11.87;;;6.80;99.90;;;;;;5038501;28;20432;-85
2021/04/20 03:06:16;;;;;;;14.63;13.10;;;6.70;99.90;;;;;;5036674;28;20442;-85
2021/04/20 03:08:48;;;;;;;13.17;11.67;;;6.70;99.90;;;;;;5035177;28;20492;-85
2021/04/20 03:11:20;;;;;;;13.00;11.70;;;6.60;99.90;;;;;;5036763;28;20440;-85
2021/04/20 03:13:48;;;;;;;13.23;11.83;;;6.60;99.80;;;;;;5036070;28;20877;-85
2021/04/20 03:16:35;;;;;;;12.97;11.73;;;6.50;99.80;;;;;;5035470;28;20449;-85
2021/04/20 03:19:07;;;;;;;16.90;15.17;;;6.50;99.80;;;;;;5035795;28;20512;-85
2021/04/20 03:21:36;;;;;;;14.90;13.40;;;6.40;99.80;;;;;;5035667;28;20446;-86
2021/04/20 03:24:06;;;;;;;14.73;13.27;;;6.50;99.80;;;;;;5035647;28;20472;-86
2021/04/20 03:26:40;;;;;;;13.70;12.33;;;6.40;99.80;;;;;;5035109;28;20447;-86
2021/04/20 03:29:09;;;;;;;13.80;11.30;;;6.30;99.80;;;;;;5035011;28;20504;-86
2021/04/20 03:31:38;;;;;;;13.00;11.63;;;6.30;99.80;;;;;;5034815;28;20456;-85
2021/04/20 03:34:17;;;;;;;15.90;12.93;;;6.30;99.80;;;;;;5034908;28;20523;-86
2021/04/20 03:36:55;;;;;;;16.53;12.10;;;6.30;99.80;;;;;;5035109;28;20454;-85
2021/04/20 03:39:23;;;;;;;12.03;10.80;;;6.20;99.70;;;;;;5035158;28;20482;-86
2021/04/20 03:41:55;;;;;;;12.10;10.73;;;6.20;99.70;;;;;;5035457;28;20490;-86
2021/04/20 03:44:26;;;;;;;11.43;10.10;;;6.10;99.60;;;;;;5035261;28;20449;-86
2021/04/20 03:47:01;;;;;;;14.07;10.43;;;6.10;99.60;;;;;;5035715;28;20976;-85
2021/04/20 03:49:33;;;;;;;10.57;9.47;;;6.10;99.60;;;;;;5035317;28;20477;-85
2021/04/20 03:52:02;;;;;;;12.33;10.33;;;6.10;99.60;;;;;;5034785;28;20442;-85
2021/04/20 03:54:32;;;;;;;10.80;9.70;;;6.00;99.50;;;;;;5035695;28;20472;-85
2021/04/20 03:57:02;;;;;;;12.93;10.57;;;6.00;99.50;;;;;;5038598;28;20441;-85
2021/04/20 03:59:32;;;;;;;12.27;10.20;;;6.00;99.50;;;;;;5037618;28;20484;-85
2021/04/20 04:02:04;;;;;;;11.80;10.70;;;5.90;99.50;;;;;;5038829;28;20420;-85
2021/04/20 04:04:34;;;;;;;13.27;11.23;;;5.90;99.50;;;;;;5038810;28;20530;-85
2021/04/20 04:07:03;;;;;;;12.93;11.63;;;5.90;99.50;;;;;;5038400;28;20822;-84
2021/04/20 04:09:31;;;;;;;12.70;11.40;;;5.80;99.50;;;;;;5037812;28;20483;-84
2021/04/20 04:12:04;;;;;;;14.80;10.80;;;5.80;99.50;;;;;;5037866;28;20977;-85
2021/04/20 04:14:35;;;;;;;12.60;11.40;;;5.70;99.50;;;;;;5038793;28;20468;-85
2021/04/20 04:17:06;;;;;;;12.87;11.53;;;5.70;99.50;;;;;;5037582;28;20536;-85
2021/04/20 04:19:39;;;;;;;13.63;12.23;;;5.70;99.50;;;;;;5039019;28;20464;-85
2021/04/20 04:22:11;;;;;;;13.77;12.37;;;5.70;99.60;;;;;;5038915;28;20522;-85
2021/04/20 04:24:45;;;;;;;15.53;12.17;;;5.70;99.60;;;;;;5037509;28;20446;-85
2021/04/20 04:27:14;;;;;;;15.17;13.57;;;5.60;99.60;;;;;;5039614;28;20453;-84
2021/04/20 04:29:43;;;;;;;14.27;12.87;;;5.60;99.60;;;;;;5038570;28;20460;-85
2021/04/20 04:32:11;;;;;;;17.00;14.27;;;5.60;99.60;;;;;;5039114;28;20449;-86
2021/04/20 04:34:41;;;;;;;16.93;14.27;;;5.70;99.90;;;;;;5038655;28;20238;-85
2021/04/20 04:37:09;;;;;;;16.57;14.80;;;5.60;99.70;;;;;;5039736;28;20861;-84
2021/04/20 04:39:38;;;;;;;16.52;14.80;;;5.60;99.80;;;;;;5050052;28;20437;-85
2021/04/20 04:42:06;;;;;;;17.40;15.60;;;5.60;99.80;;;;;;5051262;28;20178;-84
2021/04/20 04:44:34;;;;;;;17.60;15.60;;;5.60;99.80;;;;;;5051031;28;20456;-84
2021/04/20 04:47:01;;;;;;;16.20;14.67;;;5.50;99.80;;;;;;5050026;28;20467;-84
2021/04/20 04:49:31;;;;;;;17.60;16.00;;;5.50;99.90;;;;;;5049784;28;20491;-85
2021/04/20 04:52:03;;;;;;;16.43;14.77;;;5.40;99.90;;;;;;5042177;28;20442;-85
2021/04/20 04:54:31;;;;;;;16.93;15.30;;;5.50;99.90;;;;;;5037586;28;20546;-85
2021/04/20 04:57:02;;;;;;;17.33;15.53;;;5.40;99.90;;;;;;5037597;28;20441;-85
2021/04/20 04:59:34;;;;;;;16.73;14.80;;;5.40;99.90;;;;;;5017854;28;20477;-84
2021/04/20 05:02:07;;;;;;;15.93;14.27;;;5.40;99.90;;;;;;5025278;28;20478;-84
2021/04/20 05:04:36;;;;;;;15.60;13.70;;;5.40;99.90;;;;;;5033437;28;20469;-84
2021/04/20 05:07:06;;;;;;;14.50;13.00;;;5.40;99.90;;;;;;5034217;28;20442;-85
2021/04/20 05:09:36;;;;;;;15.13;13.23;;;5.30;99.90;;;;;;5017858;28;20599;-85
2021/04/20 05:12:05;;;;;;;14.80;13.03;;;5.30;99.90;;;;;;5018476;28;20437;-85
2021/04/20 05:14:33;;;;;;;14.17;12.20;;;5.40;99.90;;;;;;5018630;28;20476;-85
2021/04/20 05:17:00;;;;;;;13.30;11.90;;;5.30;99.90;;;;;;5038178;28;20520;-85
2021/04/20 05:19:32;;;;;;;13.70;12.20;;;5.40;99.90;;;;;;5020766;28;20560;-85
2021/04/20 05:22:00;;;;;;;12.37;11.17;;;5.40;99.90;;;;;;5021374;28;20480;-86
2021/04/20 05:24:38;;;;;;;12.97;11.50;;;5.40;99.90;;;;;;5021899;28;20472;-84
2021/04/20 05:27:08;;;;;;;12.13;10.93;;;5.40;99.90;;;;;;5038411;28;20449;-84
2021/04/20 05:29:35;;;;;;;17.07;14.27;;;5.40;99.90;;;;;;5021057;28;20463;-84
2021/04/20 05:32:02;;;;;;;16.67;12.60;;;5.40;99.90;;;;;;5021228;28;20580;-84
2021/04/20 05:34:32;;;;;;;11.80;10.07;;;5.40;99.90;;;;;;5023048;28;20949;-85
2021/04/20 05:37:02;;;;;;;14.00;12.47;;;5.50;99.90;;;;;;5022454;28;20446;-85
2021/04/20 05:39:32;;;;;;;13.13;11.77;;;5.50;99.90;;;;;;5045134;28;20495;-84
2021/04/20 05:42:00;;;;;;;14.57;13.10;;;5.50;99.90;;;;;;5044255;28;20524;-83
2021/04/20 05:44:32;;;;;;;12.30;11.00;;;5.50;99.90;;;;;;5031119;28;20450;-83
2021/04/20 05:46:59;;;;;;;17.47;12.60;;;5.60;99.90;;;;;;5031003;28;21007;-84
2021/04/20 05:49:28;;;;;;;14.27;12.93;;;5.60;99.90;;;;;;5031045;28;20481;-83
2021/04/20 05:51:58;;;;;;;13.13;11.83;;;5.60;99.90;;;;;;5030242;28;20506;-84
2021/04/20 05:54:25;;;;;;;14.03;12.63;;;5.70;99.90;;;;;;5046712;28;20477;-84
2021/04/20 05:56:53;;;;;;;14.13;12.67;;;5.70;99.90;;;;;;5030701;28;20445;-84
2021/04/20 05:59:21;;;;;;;13.73;12.43;;;5.80;99.90;;;;;;5029695;28;20476;-83
2021/04/20 06:01:50;;;;;;;14.40;13.03;;;5.90;99.90;;;;;;5031706;28;20441;-83
2021/04/20 06:04:18;;;;;;;15.10;13.43;;;6.10;99.90;;;;;;5046479;28;20433;-84
2021/04/20 06:06:46;;;;;;;16.30;14.60;;;6.30;99.90;;;;;;5046883;28;20472;-85
2021/04/20 06:09:14;;;;;;;15.67;13.20;;;6.50;99.90;;;;;;5029612;28;20476;-84
2021/04/20 06:11:43;;;;;;;15.37;12.80;;;6.80;99.90;;;;;;5046116;28;20450;-84
2021/04/20 06:14:12;;;;;;;14.47;12.60;;;7.10;99.90;;;;;;5029505;28;20447;-84
2021/04/20 06:16:41;;;;;;;15.57;12.77;;;7.40;99.90;;;;;;5045690;28;20955;-84
2021/04/20 06:19:11;;;;;;;14.33;12.20;;;7.70;99.90;;;;;;5029835;28;20454;-84
2021/04/20 06:21:39;;;;;;;17.83;13.60;;;8.00;99.90;;;;;;5028365;28;20442;-83
2021/04/20 06:24:08;;;;;;;13.60;11.97;;;8.30;99.90;;;;;;5029695;28;20509;-85
2021/04/20 06:26:36;;;;;;;12.82;11.52;;;8.60;99.90;;;;;;5042512;28;20454;-84
2021/04/20 06:29:05;;;;;;;12.70;11.40;;;8.90;99.90;;;;;;5027627;28;20322;-83
2021/04/20 06:31:34;;;;;;;14.77;13.00;;;9.20;99.90;;;;;;5043206;28;20486;-83
2021/04/20 06:34:03;;;;;;;13.13;11.73;;;9.50;99.90;;;;;;5027447;28;20518;-83
2021/04/20 06:36:31;;;;;;;12.60;11.30;;;9.70;99.90;;;;;;5027515;28;20445;-83
2021/04/20 06:39:00;;;;;;;13.00;11.70;;;9.90;99.90;;;;;;5027472;28;20475;-84
2021/04/20 06:41:30;;;;;;;12.27;11.07;;;10.10;99.90;;;;;;5026271;28;20443;-84
2021/04/20 06:44:03;;;;;;;13.90;11.50;;;10.30;99.90;;;;;;5026221;28;20870;-84
2021/04/20 06:46:37;;;;;;;13.63;10.47;;;10.50;99.90;;;;;;5024910;28;20430;-84
2021/04/20 06:49:12;;;;;;;12.73;11.40;;;10.80;99.90;;;;;;5039897;28;20471;-84
2021/04/20 06:51:45;;;;;;;12.00;10.80;;;11.00;99.90;;;;;;5022301;28;20444;-85
2021/04/20 06:54:21;;;;;;;13.37;10.37;;;11.30;99.90;;;;;;5019578;28;20556;-85
2021/04/20 06:56:57;;;;;;;14.10;11.20;;;11.50;99.90;;;;;;5034857;28;20451;-85
2021/04/20 06:59:35;;;;;;;11.87;10.57;;;11.70;99.90;;;;;;5025159;28;20472;-84
2021/04/20 07:02:09;;;;;;;14.63;12.23;;;11.90;99.90;;;;;;5027251;28;20515;-85
2021/04/20 07:04:46;;;;;;;11.53;10.37;;;12.20;99.90;;;;;;5025683;28;20455;-85
2021/04/20 07:07:33;;;;;;;12.20;10.87;;;12.30;99.90;;;;;;5025817;28;20802;-85
2021/04/20 07:10:13;;;;;;;13.13;10.70;;;12.60;99.90;;;;;;5043287;28;20496;-84
2021/04/20 07:12:42;;;;;;;12.63;10.17;;;12.70;99.90;;;;;;5026697;28;20911;-84
2021/04/20 07:15:17;;;;;;;13.10;10.80;;;12.90;99.90;;;;;;5025739;28;20561;-85
2021/04/20 07:18:13;;;;;;;13.50;9.77;;;13.10;99.80;;;;;;5025435;28;20433;-85
2021/04/20 07:20:54;;;;;;;12.50;10.60;;;13.30;99.70;;;;;;5025765;28;20477;-84
2021/04/20 07:23:57;;;;;;;13.03;10.10;;;13.50;99.50;;;;;;5042578;28;20431;-84
2021/04/20 07:26:54;;;;;;;13.47;10.40;;;13.70;99.40;;;;;;5013538;28;20452;-84
2021/04/20 07:29:36;;;;;;;12.03;10.00;;;13.90;99.20;;;;;;5003564;28;20474;-84
2021/04/20 07:32:20;;;;;;;11.80;10.27;;;14.00;99.10;;;;;;5029071;28;20498;-84
2021/04/20 07:34:58;;;;;;;11.63;8.97;;;14.20;99.00;;;;;;5027059;28;20496;-84
2021/04/20 07:37:41;;;;;;;14.23;9.47;;;14.30;98.70;;;;;;5024714;28;20446;-84
2021/04/20 07:40:18;;;;;;;12.27;9.03;;;14.50;98.50;;;;;;5024764;28;20446;-84
2021/04/20 07:42:58;;;;;;;11.73;8.43;;;14.60;98.60;;;;;;5041144;28;20444;-84
2021/04/20 07:45:31;;;;;;;10.93;9.27;;;14.70;98.10;;;;;;5025316;28;20419;-84
2021/04/20 07:48:07;;;;;;;10.80;9.70;;;14.80;98.00;;;;;;5041350;28;20408;-84
2021/04/20 07:50:43;;;;;;;12.13;8.70;;;14.90;97.80;;;;;;5024829;28;20499;-85
2021/04/20 07:53:16;;;;;;;10.10;8.30;;;15.10;97.70;;;;;;5025260;28;20452;-84
2021/04/20 07:55:52;;;;;;;14.77;9.00;;;15.20;97.50;;;;;;5025144;28;20495;-84
2021/04/20 07:58:23;;;;;;;13.60;9.03;;;15.40;97.30;;;;;;5040812;28;20515;-84
2021/04/20 08:00:56;;;;;;;15.37;9.90;;;15.50;97.10;;;;;;5025924;28;20676;-84
2021/04/20 08:03:34;;;;;;;10.27;9.17;;;15.50;96.80;;;;;;5025968;28;20421;-84
2021/04/20 08:06:11;;;;;;;13.40;10.27;;;15.70;96.70;;;;;;5041294;28;20448;-84
2021/04/20 08:08:44;;;;;;;13.27;10.37;;;15.80;96.40;;;;;;5025116;28;20459;-84
2021/04/20 08:11:18;;;;;;;11.40;9.43;;;15.80;96.20;;;;;;5042138;28;20457;-85
2021/04/20 08:13:52;;;;;;;16.30;11.00;;;15.80;95.90;;;;;;5025042;28;20428;-84
2021/04/20 08:16:26;;;;;;;9.70;8.15;;;15.90;95.70;;;;;;5039772;28;20801;-84
2021/04/20 08:18:59;;;;;;;9.80;8.80;;;16.00;95.00;;;;;;5023772;28;20189;-84
2021/04/20 08:21:28;;;;;;;10.23;9.13;;;16.00;95.00;;;;;;5022236;28;20440;-84
2021/04/20 08:23:58;;;;;;;10.27;8.80;;;16.10;95.00;;;;;;5023458;28;20440;-84
2021/04/20 08:26:30;;;;;;;9.63;8.70;;;16.30;95.00;;;;;;5038775;28;20433;-84
2021/04/20 08:29:02;;;;;;;8.97;8.07;;;16.40;94.80;;;;;;5021135;28;20468;-84
2021/04/20 08:31:35;;;;;;;9.83;7.83;;;16.50;94.80;;;;;;5035980;28;20476;-84
2021/04/20 08:34:15;;;;;;;9.80;8.03;;;16.70;94.60;;;;;;5037954;28;20448;-85
2021/04/20 08:36:58;;;;;;;8.67;7.77;;;16.80;94.50;;;;;;5047239;28;20424;-83
2021/04/20 08:39:35;;;;;;;9.60;7.20;;;16.80;93.90;;;;;;5041284;28;20465;-83
2021/04/20 08:42:11;;;;;;;9.60;8.13;;;16.90;93.70;;;;;;5025108;28;20450;-84
2021/04/20 08:44:49;;;;;;;9.07;6.87;;;16.90;93.60;;;;;;5025669;28;20474;-84
2021/04/20 08:47:25;;;;;;;8.70;7.20;;;16.90;93.30;;;;;;5024633;28;20444;-84
2021/04/20 08:49:57;;;;;;;8.37;6.80;;;16.90;92.50;;;;;;5044041;28;20471;-84
2021/04/20 08:52:44;;;;;;;7.30;6.60;;;16.90;92.40;;;;;;5028410;28;20458;-84
2021/04/20 08:55:28;;;;;;;9.97;7.30;;;16.80;92.10;;;;;;5028752;28;20953;-84
2021/04/20 08:58:18;;;;;;;8.13;7.23;;;16.90;92.10;;;;;;5028027;28;20451;-84
2021/04/20 09:00:57;;;;;;;8.70;7.80;;;17.00;92.10;;;;;;5028737;28;20500;-84
2021/04/20 09:03:32;;;;;;;7.27;6.50;;;17.00;91.80;;;;;;5045490;28;20443;-84
2021/04/20 09:06:04;;;;;;;11.53;6.77;;;17.10;91.90;;;;;;5028340;28;20473;-84
2021/04/20 09:08:36;;;;;;;9.40;5.73;;;17.20;91.90;;;;;;5044273;28;20456;-84
2021/04/20 09:11:16;;;;;;;9.40;6.23;;;17.40;91.80;;;;;;5043777;28;20848;-84
2021/04/20 09:13:51;;;;;;;10.07;6.90;;;17.40;91.40;;;;;;5044672;28;20502;-84
2021/04/20 09:16:24;;;;;;;8.77;5.87;;;17.50;91.40;;;;;;5044090;28;20469;-84
2021/04/20 09:18:52;;;;;;;11.67;6.83;;;17.60;91.30;;;;;;5043469;28;20459;-84
2021/04/20 09:21:29;;;;;;;7.90;6.50;;;17.70;91.00;;;;;;5027589;28;20460;-85
2021/04/20 09:24:04;;;;;;;6.70;5.77;;;17.80;90.90;;;;;;5027120;28;20440;-84
2021/04/20 09:27:03;;;;;;;10.97;6.97;;;17.80;90.50;;;;;;5038505;28;20448;-85
2021/04/20 09:29:35;;;;;;;10.45;6.65;;;17.80;90.30;;;;;;5021512;28;20450;-85
2021/04/20 09:32:07;;;;;;;7.57;6.40;;;17.80;89.50;;;;;;5026418;28;20196;-85
2021/04/20 09:34:42;;;;;;;14.07;7.10;;;17.80;88.90;;;;;;5029751;28;20483;-85
2021/04/20 09:37:11;;;;;;;7.47;6.00;;;17.80;88.80;;;;;;5029716;28;20812;-85
2021/04/20 09:39:42;;;;;;;7.07;5.97;;;17.70;88.90;;;;;;5044219;28;20457;-84
2021/04/20 09:42:15;;;;;;;7.17;5.90;;;17.90;88.30;;;;;;5027494;28;20201;-84
2021/04/20 09:45:00;;;;;;;7.80;5.47;;;17.90;88.30;;;;;;5026601;28;20479;-84
2021/04/20 09:47:47;;;;;;;9.30;5.30;;;18.00;88.10;;;;;;5025818;28;20440;-85
2021/04/20 09:50:23;;;;;;;6.47;5.27;;;18.00;87.50;;;;;;5024558;28;20837;-85
2021/04/20 09:53:06;;;;;;;7.40;4.80;;;18.00;87.20;;;;;;5040498;28;20479;-85
2021/04/20 09:55:38;;;;;;;8.83;5.03;;;18.00;86.80;;;;;;5040377;28;20964;-84
2021/04/20 09:58:09;;;;;;;7.97;5.67;;;18.00;86.40;;;;;;5021979;28;20421;-85
2021/04/20 10:00:41;;;;;;;6.43;5.10;;;18.00;85.80;;;;;;5021711;28;20460;-85
2021/04/20 10:03:50;;;;;;;6.47;4.90;;;18.00;84.90;;;;;;5037019;28;20436;-85
2021/04/20 10:07:14;;;;;;;6.53;4.63;;;18.00;84.60;;;;;;5017396;28;20510;-85
2021/04/20 10:09:49;;;;;;;7.40;4.70;;;18.00;83.40;;;;;;5032734;28;20472;-86
2021/04/20 10:12:36;;;;;;;7.33;5.40;;;17.90;83.40;;;;;;5036963;28;20452;-86
2021/04/20 10:15:12;;;;;;;6.80;4.67;;;17.90;82.90;;;;;;5020069;28;20543;-85
2021/04/20 10:17:48;;;;;;;4.83;4.33;;;17.90;82.90;;;;;;5020406;28;20494;-86
2021/04/20 10:20:20;;;;;;;7.57;5.73;;;17.90;81.70;;;;;;5036186;28;20479;-86
2021/04/20 10:22:54;;;;;;;5.40;4.87;;;17.80;81.40;;;;;;5035720;28;20456;-86
2021/04/20 10:25:33;;;;;;;7.47;5.13;;;17.80;81.00;;;;;;5036332;28;20486;-86
2021/04/20 10:28:13;;;;;;;5.80;5.20;;;17.70;80.40;;;;;;5036433;28;20436;-85
2021/04/20 10:30:46;;;;;;;6.00;4.80;;;17.70;80.40;;;;;;5036981;28;20487;-85
2021/04/20 10:33:21;;;;;;;8.00;5.20;;;17.70;80.10;;;;;;5036941;28;20468;-86
2021/04/20 10:35:53;;;;;;;7.70;5.00;;;17.70;79.70;;;;;;5037372;28;20460;-86
2021/04/20 10:38:23;;;;;;;8.27;4.80;;;17.70;79.50;;;;;;5036207;28;20822;-86
2021/04/20 10:40:54;;;;;;;6.97;6.27;;;17.70;79.00;;;;;;5019744;28;20487;-85
2021/04/20 10:43:25;;;;;;;7.77;6.00;;;17.70;79.10;;;;;;5020858;28;20424;-85
2021/04/20 10:45:56;;;;;;;9.70;6.50;;;17.70;78.80;;;;;;5020256;28;20471;-85
2021/04/20 10:48:27;;;;;;;7.00;5.60;;;17.70;78.60;;;;;;5019739;28;20868;-85
2021/04/20 10:50:55;;;;;;;6.93;6.23;;;17.80;78.70;;;;;;5033275;28;20476;-86
2021/04/20 10:53:26;;;;;;;6.55;5.60;;;17.80;78.40;;;;;;5033796;28;20477;-86
2021/04/20 10:56:00;;;;;;;6.90;5.80;;;18.00;74.70;;;;;;5018647;28;20209;-86
2021/04/20 10:58:32;;;;;;;9.67;6.30;;;18.00;75.00;;;;;;5018871;28;20443;-85
2021/04/20 11:01:04;;;;;;;7.60;6.50;;;17.90;75.30;;;;;;5018958;28;20461;-85
2021/04/20 11:03:34;;;;;;;7.57;5.50;;;17.90;75.50;;;;;;5019001;28;20440;-85
2021/04/20 11:06:04;;;;;;;10.57;6.40;;;17.90;75.40;;;;;;5036193;28;20449;-85
2021/04/20 11:08:37;;;;;;;8.63;6.30;;;17.90;75.10;;;;;;5017999;28;20514;-85
2021/04/20 11:11:17;;;;;;;6.57;5.53;;;17.90;75.00;;;;;;5018509;28;20476;-85
2021/04/20 11:13:45;;;;;;;7.90;5.43;;;17.90;74.50;;;;;;5018594;28;20425;-85
2021/04/20 11:16:18;;;;;;;9.83;5.80;;;18.00;74.70;;;;;;5017226;28;20471;-85
2021/04/20 11:18:52;;;;;;;6.43;5.60;;;18.00;74.10;;;;;;5018096;28;20444;-85
2021/04/20 11:21:27;;;;;;;6.30;5.17;;;17.90;73.90;;;;;;5034937;28;20448;-85
2021/04/20 11:24:02;;;;;;;8.07;5.43;;;17.90;74.30;;;;;;5016665;28;20440;-86
2021/04/20 11:26:32;;;;;;;6.77;5.50;;;17.90;73.80;;;;;;5034547;28;20452;-86
2021/04/20 11:29:06;;;;;;;10.57;6.07;;;17.90;73.60;;;;;;5015123;28;20567;-85
2021/04/20 11:31:38;;;;;;;7.27;5.90;;;17.90;73.10;;;;;;5015265;28;20514;-86
2021/04/20 11:34:14;;;;;;;5.60;5.00;;;17.90;73.00;;;;;;5031822;28;20539;-86
2021/04/20 11:36:46;;;;;;;5.20;4.70;;;17.90;73.10;;;;;;5015438;28;20475;-86
2021/04/20 11:39:19;;;;;;;6.80;6.20;;;17.90;72.90;;;;;;5014530;28;20467;-86
2021/04/20 11:41:53;;;;;;;6.47;5.87;;;17.90;72.20;;;;;;5031676;28;20448;-86
2021/04/20 11:44:23;;;;;;;9.53;6.10;;;18.00;72.20;;;;;;5017768;28;20435;-86
2021/04/20 11:46:53;;;;;;;8.20;5.27;;;18.00;71.90;;;;;;5015735;28;20476;-86
2021/04/20 11:49:26;;;;;;;8.47;6.03;;;18.00;71.70;;;;;;5031636;28;20468;-85
2021/04/20 11:51:55;;;;;;;7.28;5.40;;;17.90;71.30;;;;;;5018181;28;20455;-85
2021/04/20 11:54:25;;;;;;;7.17;4.90;;;18.00;68.10;;;;;;5020234;28;20252;-85
2021/04/20 11:56:59;;;;;;;6.47;5.23;;;18.00;68.50;;;;;;5023030;28;20461;-85
2021/04/20 11:59:28;;;;;;;5.73;4.37;;;17.90;68.50;;;;;;5020521;28;20460;-85
2021/04/20 12:01:57;;;;;;;5.72;5.22;;;17.90;68.80;;;;;;5018763;28;20455;-85
2021/04/20 12:04:28;;;;;;;5.93;5.30;;;18.00;67.60;;;;;;5020534;28;20670;-85
2021/04/20 12:06:57;;;;;;;6.60;4.80;;;18.00;67.60;;;;;;5019303;28;20437;-85
2021/04/20 12:09:29;;;;;;;7.07;4.50;;;18.00;67.80;;;;;;5035465;28;20910;-85
2021/04/20 12:11:58;;;;;;;5.53;4.93;;;18.10;67.70;;;;;;5018282;28;20444;-85
2021/04/20 12:14:28;;;;;;;5.53;4.80;;;18.10;67.10;;;;;;5018065;28;20478;-85
2021/04/20 12:16:59;;;;;;;5.63;4.87;;;18.00;66.70;;;;;;5033121;28;20460;-85
2021/04/20 12:19:31;;;;;;;6.57;5.50;;;17.90;66.60;;;;;;5017471;28;20468;-85
2021/04/20 12:22:02;;;;;;;9.00;5.30;;;17.90;66.30;;;;;;5017453;28;20451;-85
2021/04/20 12:24:32;;;;;;;5.17;4.77;;;17.90;65.70;;;;;;5036368;28;20478;-85
2021/04/20 12:27:02;;;;;;;8.80;5.20;;;17.90;65.90;;;;;;5020917;28;20440;-85
2021/04/20 12:29:33;;;;;;;7.07;4.67;;;17.90;65.00;;;;;;5037788;28;20464;-85
2021/04/20 12:32:12;;;;;;;6.00;5.10;;;17.90;64.10;;;;;;5037376;28;20441;-85
2021/04/20 12:34:41;;;;;;;6.40;5.00;;;17.90;64.00;;;;;;5037920;28;20433;-85
2021/04/20 12:37:10;;;;;;;8.23;5.90;;;17.90;64.40;;;;;;5022986;28;20496;-85
2021/04/20 12:39:40;;;;;;;9.20;5.53;;;17.90;64.40;;;;;;5036828;28;20488;-85
2021/04/20 12:42:11;;;;;;;6.30;5.70;;;17.90;64.60;;;;;;5019555;28;20878;-85
2021/04/20 12:44:40;;;;;;;7.10;4.70;;;17.90;64.50;;;;;;5019906;28;20445;-85
2021/04/20 12:47:12;;;;;;;5.63;5.03;;;17.90;64.20;;;;;;5019154;28;20483;-85
2021/04/20 12:49:46;;;;;;;5.33;4.83;;;17.90;64.00;;;;;;5036867;28;20471;-84
2021/04/20 12:52:18;;;;;;;7.50;5.80;;;17.90;63.10;;;;;;5019968;28;20466;-85
2021/04/20 12:54:50;;;;;;;6.23;5.63;;;17.90;63.00;;;;;;5037366;28;20437;-84
2021/04/20 12:57:37;;;;;;;5.50;5.00;;;17.80;63.30;;;;;;5022186;28;20446;-84
2021/04/20 13:00:11;;;;;;;6.20;5.40;;;17.90;63.40;;;;;;5017521;28;20458;-85
2021/04/20 13:02:44;;;;;;;5.87;5.30;;;17.90;60.80;;;;;;5034760;28;20194;-85
2021/04/20 13:05:14;;;;;;;6.97;6.13;;;17.90;61.40;;;;;;5032770;28;20452;-85
2021/04/20 13:07:43;;;;;;;7.73;6.40;;;17.90;61.80;;;;;;5018059;28;20440;-85